createdAt,value
2019-05-19T00:00:20.993Z,95.99
2019-05-19T00:02:49.758Z,94.68
2019-05-19T00:05:18.230Z,96.43
2019-05-19T00:07:46.810Z,95.84
2019-05-19T00:10:15.594Z,95.00
2019-05-19T00:12:44.087Z,96.84
2019-05-19T00:15:12.722Z,96.23
2019-05-19T00:17:41.303Z,94.83
2019-05-19T00:20:09.782Z,94.22
2019-05-19T00:22:38.383Z,95.51
2019-05-19T00:25:07.787Z,96.22
2019-05-19T00:27:36.371Z,98.14
2019-05-19T00:30:05.752Z,96.95
2019-05-19T00:32:35.065Z,97.09
2019-05-19T00:35:04.051Z,95.71
2019-05-19T00:37:32.561Z,95.99
2019-05-19T00:40:01.140Z,95.70
2019-05-19T00:42:29.835Z,96.30
2019-05-19T00:44:58.419Z,96.61
2019-05-19T00:47:27.134Z,95.33
2019-05-19T00:49:55.744Z,94.71
2019-05-19T00:52:24.240Z,95.61
2019-05-19T00:54:52.942Z,94.68
2019-05-19T00:57:22.453Z,94.14
2019-05-19T00:59:51.649Z,94.87
2019-05-19T01:02:20.233Z,95.98
2019-05-19T01:04:48.726Z,95.88
2019-05-19T01:07:17.208Z,95.67
2019-05-19T01:09:45.811Z,96.55
2019-05-19T01:12:14.431Z,97.61
2019-05-19T01:14:42.833Z,95.27
2019-05-19T01:17:11.622Z,94.26
2019-05-19T01:19:40.206Z,97.48
2019-05-19T01:22:08.907Z,96.32
2019-05-19T01:24:37.486Z,96.64
2019-05-19T01:27:05.982Z,96.52
2019-05-19T01:29:34.621Z,96.36
2019-05-19T01:32:03.103Z,97.57
2019-05-19T01:34:31.714Z,98.41
2019-05-19T01:37:00.197Z,99.19
2019-05-19T01:39:28.957Z,100.00
2019-05-19T01:41:57.537Z,100.00
2019-05-19T01:44:26.020Z,100.00
2019-05-19T01:46:54.508Z,98.42
2019-05-19T01:49:22.993Z,98.07
2019-05-19T01:51:51.569Z,99.39
2019-05-19T01:54:20.427Z,96.52
2019-05-19T01:56:49.052Z,98.73
2019-05-19T01:59:17.518Z,98.11
2019-05-19T02:01:46.008Z,97.83
2019-05-19T02:04:14.633Z,95.37
2019-05-19T02:06:43.228Z,93.79
2019-05-19T02:09:11.732Z,95.79
2019-05-19T02:11:40.270Z,95.16
2019-05-19T02:14:08.867Z,93.68
2019-05-19T02:16:37.392Z,95.30
2019-05-19T02:19:06.022Z,96.21
2019-05-19T02:21:34.660Z,95.09
2019-05-19T02:24:03.261Z,96.06
2019-05-19T02:26:31.969Z,95.93
2019-05-19T02:29:00.426Z,97.41
2019-05-19T02:31:29.024Z,97.36
2019-05-19T02:33:57.627Z,96.01
2019-05-19T02:36:26.193Z,96.62
2019-05-19T02:38:54.799Z,98.64
2019-05-19T02:41:25.849Z,98.98
2019-05-19T02:43:56.324Z,97.21
2019-05-19T02:46:24.901Z,98.16
2019-05-19T02:48:54.110Z,96.57
2019-05-19T02:51:25.620Z,95.89
2019-05-19T02:53:55.305Z,97.18
2019-05-19T02:56:25.530Z,98.39
2019-05-19T02:58:55.112Z,96.29
2019-05-19T03:01:23.503Z,95.47
2019-05-19T03:03:52.205Z,95.95
2019-05-19T03:06:20.689Z,99.10
2019-05-19T03:08:49.166Z,98.42
2019-05-19T03:11:17.613Z,94.45
2019-05-19T03:13:46.109Z,96.41
2019-05-19T03:16:14.707Z,97.35
2019-05-19T03:18:43.103Z,97.07
2019-05-19T03:21:12.183Z,96.68
2019-05-19T03:23:40.761Z,97.18
2019-05-19T03:26:09.237Z,97.87
2019-05-19T03:28:37.817Z,98.50
2019-05-19T03:31:14.343Z,98.72
2019-05-19T03:33:44.631Z,97.94
2019-05-19T03:36:13.120Z,97.50
2019-05-19T03:38:41.703Z,96.63
2019-05-19T03:41:10.283Z,96.79
2019-05-19T03:43:39.004Z,96.63
2019-05-19T03:46:07.620Z,96.50
2019-05-19T03:48:36.115Z,95.80
2019-05-19T03:51:04.833Z,97.25
2019-05-19T03:53:33.387Z,97.94
2019-05-19T03:56:01.994Z,97.60
2019-05-19T03:58:30.592Z,96.66
2019-05-19T04:00:59.083Z,96.32
2019-05-19T04:03:27.658Z,94.92
2019-05-19T04:05:56.134Z,94.13
2019-05-19T04:08:24.748Z,94.51
2019-05-19T04:10:53.334Z,93.81
2019-05-19T04:13:21.918Z,94.35
2019-05-19T04:15:50.430Z,95.59
2019-05-19T04:18:19.063Z,95.90
2019-05-19T04:20:47.525Z,97.52
2019-05-19T04:23:15.919Z,97.02
2019-05-19T04:25:44.566Z,96.22
2019-05-19T04:28:13.041Z,96.82
2019-05-19T04:30:41.528Z,97.27
2019-05-19T04:33:10.021Z,96.79
2019-05-19T04:35:38.608Z,95.95
2019-05-19T04:38:07.112Z,96.53
2019-05-19T04:40:35.834Z,96.90
2019-05-19T04:43:04.459Z,96.29
2019-05-19T04:45:32.948Z,96.68
2019-05-19T04:48:01.642Z,95.97
2019-05-19T04:50:30.233Z,96.11
2019-05-19T04:52:58.751Z,95.59
2019-05-19T04:55:27.248Z,96.42
2019-05-19T04:57:55.862Z,94.83
2019-05-19T05:00:24.360Z,94.38
2019-05-19T05:02:52.960Z,94.40
2019-05-19T05:05:21.465Z,94.18
2019-05-19T05:07:49.951Z,93.93
2019-05-19T05:10:18.634Z,93.15
2019-05-19T05:12:47.224Z,92.26
2019-05-19T05:15:16.090Z,91.85
2019-05-19T05:17:44.737Z,90.95
2019-05-19T05:20:13.511Z,90.47
2019-05-19T05:22:42.003Z,91.68
2019-05-19T05:25:10.903Z,89.50
2019-05-19T05:27:39.510Z,89.58
2019-05-19T05:30:08.485Z,89.96
2019-05-19T05:32:37.283Z,90.46
2019-05-19T05:35:06.751Z,90.49
2019-05-19T05:37:35.247Z,89.13
2019-05-19T05:40:04.694Z,90.16
2019-05-19T05:42:33.310Z,90.16
2019-05-19T05:45:01.884Z,88.83
2019-05-19T05:47:30.508Z,88.64
2019-05-19T05:49:58.886Z,88.58
2019-05-19T05:52:38.143Z,88.69
2019-05-19T05:54:58.018Z,89.55
2019-05-19T05:57:26.505Z,89.94
2019-05-19T05:59:55.105Z,87.17
2019-05-19T06:02:23.596Z,89.74
2019-05-19T06:04:52.097Z,86.18
2019-05-19T06:07:20.682Z,85.79
2019-05-19T06:09:49.410Z,85.90
2019-05-19T06:12:17.770Z,84.25
2019-05-19T06:14:46.264Z,84.23
2019-05-19T06:17:14.800Z,82.94
2019-05-19T06:19:43.357Z,84.15
2019-05-19T06:22:11.867Z,83.46
2019-05-19T06:24:40.514Z,84.01
2019-05-19T06:27:09.003Z,84.57
2019-05-19T06:29:37.605Z,83.26
2019-05-19T06:32:16.434Z,82.12
2019-05-19T06:34:45.084Z,81.33
2019-05-19T06:37:13.724Z,81.46
2019-05-19T06:39:42.300Z,81.98
2019-05-19T06:42:10.885Z,82.01
2019-05-19T06:44:39.689Z,82.71
2019-05-19T06:47:08.240Z,82.18
2019-05-19T06:49:36.921Z,82.03
2019-05-19T06:52:05.506Z,82.59
2019-05-19T06:54:34.284Z,82.91
2019-05-19T06:57:02.813Z,82.30
2019-05-19T06:59:31.613Z,82.35
2019-05-19T07:02:00.203Z,82.72
2019-05-19T07:04:28.757Z,82.72
2019-05-19T07:06:57.418Z,81.53
2019-05-19T07:09:26.398Z,81.30
2019-05-19T07:11:55.144Z,81.47
2019-05-19T07:14:23.725Z,81.38
2019-05-19T07:16:52.212Z,81.56
2019-05-19T07:19:20.827Z,81.80
2019-05-19T07:21:49.521Z,79.19
2019-05-19T07:24:18.124Z,79.54
2019-05-19T07:26:46.827Z,79.79
2019-05-19T07:29:15.426Z,79.66
2019-05-19T07:31:43.919Z,79.68
2019-05-19T07:34:12.333Z,76.32
2019-05-19T07:36:40.936Z,74.62
2019-05-19T07:39:09.576Z,74.03
2019-05-19T07:41:38.145Z,74.25
2019-05-19T07:44:06.750Z,74.51
2019-05-19T07:46:35.253Z,73.70
2019-05-19T07:49:03.755Z,73.41
2019-05-19T07:51:32.341Z,75.53
2019-05-19T07:54:00.974Z,70.68
2019-05-19T07:56:29.468Z,69.08
2019-05-19T07:58:58.089Z,70.53
2019-05-19T08:01:26.793Z,70.87
2019-05-19T08:03:55.314Z,71.54
2019-05-19T08:06:23.886Z,72.47
2019-05-19T08:08:52.517Z,70.66
2019-05-19T08:11:21.012Z,68.73
2019-05-19T08:13:49.900Z,68.85
2019-05-19T08:16:18.415Z,67.35
2019-05-19T08:18:47.110Z,67.37
2019-05-19T08:21:15.645Z,69.71
2019-05-19T08:23:59.160Z,68.54
2019-05-19T08:26:14.642Z,69.48
2019-05-19T08:28:43.231Z,69.59
2019-05-19T08:31:11.827Z,68.05
2019-05-19T08:33:40.324Z,69.81
2019-05-19T08:36:08.777Z,70.67
2019-05-19T08:38:37.293Z,70.10
2019-05-19T08:41:05.864Z,68.42
2019-05-19T08:43:34.437Z,68.75
2019-05-19T08:46:03.019Z,68.25
2019-05-19T08:48:31.511Z,68.01
2019-05-19T08:51:00.000Z,68.11
2019-05-19T08:53:28.484Z,68.26
2019-05-19T08:55:56.893Z,63.98
2019-05-19T08:58:25.386Z,64.37
2019-05-19T09:00:53.966Z,64.10
2019-05-19T09:03:22.358Z,64.53
2019-05-19T09:05:50.752Z,66.29
2019-05-19T09:08:19.158Z,66.14
2019-05-19T09:10:47.657Z,65.89
2019-05-19T09:13:16.131Z,64.59
2019-05-19T09:15:44.675Z,62.58
2019-05-19T09:18:13.402Z,61.43
2019-05-19T09:20:42.084Z,61.40
2019-05-19T09:23:10.578Z,62.03
2019-05-19T09:25:39.197Z,60.08
2019-05-19T09:28:07.776Z,60.75
2019-05-19T09:30:36.261Z,60.76
2019-05-19T09:33:04.847Z,60.76
2019-05-19T09:35:33.441Z,60.20
2019-05-19T09:38:01.923Z,59.95
2019-05-19T09:40:30.421Z,59.42
2019-05-19T09:42:59.012Z,58.44
2019-05-19T09:45:27.483Z,60.08
2019-05-19T09:47:55.970Z,60.13
2019-05-19T09:50:24.545Z,60.35
2019-05-19T09:52:53.122Z,59.42
2019-05-19T09:55:21.608Z,58.82
2019-05-19T09:57:50.190Z,59.21
2019-05-19T10:00:22.294Z,57.96
2019-05-19T10:02:50.978Z,58.19
2019-05-19T10:05:19.470Z,59.09
2019-05-19T10:07:48.085Z,58.96
2019-05-19T10:10:18.107Z,56.83
2019-05-19T10:12:46.605Z,57.89
2019-05-19T10:15:15.223Z,60.18
2019-05-19T10:17:43.937Z,60.79
2019-05-19T10:20:13.343Z,60.16
2019-05-19T10:22:41.825Z,60.85
2019-05-19T10:25:21.755Z,60.04
2019-05-19T10:27:41.973Z,61.57
2019-05-19T10:30:11.695Z,61.48
2019-05-19T10:32:40.377Z,62.42
2019-05-19T10:35:09.003Z,62.88
2019-05-19T10:37:37.747Z,62.04
2019-05-19T10:40:07.158Z,62.22
2019-05-19T10:42:35.665Z,62.09
2019-05-19T10:45:05.988Z,61.86
2019-05-19T10:47:34.570Z,61.70
2019-05-19T10:50:03.689Z,62.45
2019-05-19T10:52:32.429Z,62.52
2019-05-19T10:55:01.035Z,63.06
2019-05-19T10:57:29.712Z,61.35
2019-05-19T10:59:58.324Z,61.10
2019-05-19T11:02:26.938Z,62.75
2019-05-19T11:04:55.629Z,62.29
2019-05-19T11:07:24.118Z,62.65
2019-05-19T11:09:52.737Z,62.90
2019-05-19T11:12:21.325Z,62.02
2019-05-19T11:14:49.919Z,57.04
2019-05-19T11:17:18.624Z,56.31
2019-05-19T11:19:47.206Z,56.59
2019-05-19T11:22:15.890Z,55.33
2019-05-19T11:24:44.570Z,57.40
2019-05-19T11:27:13.238Z,57.09
2019-05-19T11:29:41.819Z,55.74
2019-05-19T11:32:10.398Z,56.18
2019-05-19T11:34:39.074Z,58.36
2019-05-19T11:37:07.590Z,60.13
2019-05-19T11:39:36.142Z,60.09
2019-05-19T11:42:04.747Z,61.24
2019-05-19T11:44:33.573Z,62.87
2019-05-19T11:47:02.301Z,63.85
2019-05-19T11:49:30.983Z,64.59
2019-05-19T11:51:59.599Z,64.29
2019-05-19T11:54:28.281Z,64.47
2019-05-19T11:56:56.864Z,64.43
2019-05-19T11:59:25.461Z,64.03
2019-05-19T12:01:54.065Z,64.69
2019-05-19T12:04:22.649Z,65.39
2019-05-19T12:06:51.189Z,65.11
2019-05-19T12:09:19.972Z,66.10
2019-05-19T12:11:48.555Z,65.72
2019-05-19T12:14:17.148Z,64.37
2019-05-19T12:16:45.831Z,63.24
2019-05-19T12:19:14.758Z,63.28
2019-05-19T12:21:43.347Z,64.73
2019-05-19T12:24:11.908Z,64.31
2019-05-19T12:26:40.508Z,64.84
2019-05-19T12:29:09.016Z,66.08
2019-05-19T12:31:37.613Z,66.87
2019-05-19T12:34:06.446Z,67.22
2019-05-19T12:36:35.145Z,68.35
2019-05-19T12:39:05.282Z,68.59
2019-05-19T12:41:33.882Z,68.98
2019-05-19T12:44:02.635Z,69.45
2019-05-19T12:46:31.244Z,69.33
2019-05-19T12:49:00.031Z,69.14
2019-05-19T12:51:28.541Z,70.06
2019-05-19T12:53:57.334Z,70.06
2019-05-19T12:56:38.576Z,70.96
2019-05-19T12:58:56.343Z,72.12
2019-05-19T13:01:25.030Z,72.27
2019-05-19T13:03:53.741Z,73.19
2019-05-19T13:06:22.370Z,73.68
2019-05-19T13:08:51.250Z,74.20
2019-05-19T13:11:19.844Z,74.77
2019-05-19T13:13:48.417Z,74.66
2019-05-19T13:16:17.113Z,74.12
2019-05-19T13:18:45.813Z,73.91
2019-05-19T13:21:14.421Z,73.03
2019-05-19T13:23:43.230Z,72.51
2019-05-19T13:26:11.820Z,72.93
2019-05-19T13:28:40.411Z,73.83
2019-05-19T13:31:09.222Z,73.98
2019-05-19T13:33:37.899Z,72.92
2019-05-19T13:36:06.496Z,72.03
2019-05-19T13:38:35.089Z,72.43
2019-05-19T13:41:04.092Z,71.20
2019-05-19T13:43:32.687Z,68.50
2019-05-19T13:46:01.391Z,69.14
2019-05-19T13:48:30.093Z,69.62
2019-05-19T13:50:58.774Z,69.12
2019-05-19T13:53:27.567Z,68.45
2019-05-19T13:55:56.049Z,68.16
2019-05-19T13:58:24.644Z,68.00
2019-05-19T14:00:53.249Z,68.01
2019-05-19T14:03:22.236Z,69.14
2019-05-19T14:05:50.917Z,69.27
2019-05-19T14:08:19.624Z,69.43
2019-05-19T14:10:48.223Z,71.16
2019-05-19T14:13:16.838Z,72.24
2019-05-19T14:15:45.434Z,73.25
2019-05-19T14:18:14.365Z,72.77
2019-05-19T14:20:43.282Z,74.79
2019-05-19T14:23:11.880Z,73.26
2019-05-19T14:25:40.379Z,74.05
2019-05-19T14:28:08.972Z,74.07
2019-05-19T14:30:37.577Z,74.41
2019-05-19T14:33:06.267Z,73.92
2019-05-19T14:35:34.976Z,74.75
2019-05-19T14:38:03.658Z,73.90
2019-05-19T14:40:32.274Z,74.01
2019-05-19T14:43:01.740Z,73.29
2019-05-19T14:45:30.848Z,73.54
2019-05-19T14:47:59.629Z,73.70
2019-05-19T14:50:28.233Z,74.26
2019-05-19T14:52:56.812Z,72.93
2019-05-19T14:55:25.400Z,73.24
2019-05-19T14:57:53.900Z,73.41
2019-05-19T15:00:23.294Z,73.73
2019-05-19T15:02:51.795Z,74.12
2019-05-19T15:05:20.397Z,74.69
2019-05-19T15:07:48.972Z,74.68
2019-05-19T15:10:17.776Z,72.52
2019-05-19T15:12:46.466Z,72.34
2019-05-19T15:15:15.792Z,72.52
2019-05-19T15:17:44.267Z,72.16
2019-05-19T15:20:12.756Z,72.19
2019-05-19T15:22:41.349Z,72.00
2019-05-19T15:25:10.021Z,71.46
2019-05-19T15:27:38.620Z,73.37
2019-05-19T15:30:13.179Z,72.80
2019-05-19T15:32:38.753Z,72.69
2019-05-19T15:35:07.670Z,73.00
2019-05-19T15:37:36.275Z,72.48
2019-05-19T15:40:05.351Z,73.57
2019-05-19T15:42:33.962Z,73.42
2019-05-19T15:45:02.551Z,71.44
2019-05-19T15:47:31.244Z,71.18
2019-05-19T15:49:59.756Z,72.84
2019-05-19T15:52:28.264Z,71.79
2019-05-19T15:54:56.861Z,71.81
2019-05-19T15:57:28.546Z,71.17
2019-05-19T15:59:55.947Z,72.11
2019-05-19T16:02:24.538Z,72.68
2019-05-19T16:04:53.139Z,74.12
2019-05-19T16:07:21.631Z,73.37
2019-05-19T16:09:50.215Z,73.88
2019-05-19T16:12:18.911Z,74.07
2019-05-19T16:14:47.319Z,73.93
2019-05-19T16:17:15.870Z,73.80
2019-05-19T16:19:44.611Z,70.97
2019-05-19T16:22:13.299Z,70.67
2019-05-19T16:24:41.882Z,70.08
2019-05-19T16:27:12.845Z,70.78
2019-05-19T16:29:40.748Z,69.17
2019-05-19T16:32:09.236Z,67.61
2019-05-19T16:34:37.821Z,67.25
2019-05-19T16:37:06.230Z,65.89
2019-05-19T16:39:34.809Z,66.59
2019-05-19T16:42:03.531Z,64.59
2019-05-19T16:44:32.134Z,64.49
2019-05-19T16:47:00.614Z,65.54
2019-05-19T16:49:29.139Z,64.73
2019-05-19T16:51:57.622Z,63.00
2019-05-19T16:54:30.844Z,62.57
2019-05-19T16:56:59.432Z,65.34
2019-05-19T16:59:28.026Z,64.85
2019-05-19T17:01:56.518Z,62.96
2019-05-19T17:04:25.116Z,60.71
2019-05-19T17:06:53.592Z,63.64
2019-05-19T17:09:22.283Z,58.51
2019-05-19T17:11:50.864Z,63.08
2019-05-19T17:14:19.565Z,61.08
2019-05-19T17:16:48.057Z,60.04
2019-05-19T17:19:16.783Z,58.97
2019-05-19T17:21:45.361Z,60.54
2019-05-19T17:24:13.986Z,58.44
2019-05-19T17:26:42.501Z,57.11
2019-05-19T17:29:11.132Z,56.40
2019-05-19T17:31:39.655Z,62.12
2019-05-19T17:34:08.267Z,58.49
2019-05-19T17:36:36.770Z,57.28
2019-05-19T17:39:06.245Z,57.35
2019-05-19T17:41:34.741Z,57.53
2019-05-19T17:44:03.403Z,56.78
2019-05-19T17:46:32.210Z,57.22
2019-05-19T17:49:00.940Z,60.53
2019-05-19T17:51:29.454Z,57.76
2019-05-19T17:53:58.006Z,57.46
2019-05-19T17:56:28.043Z,58.83
2019-05-19T17:58:57.248Z,62.00
2019-05-19T18:01:25.950Z,60.91
2019-05-19T18:03:54.593Z,61.37
2019-05-19T18:06:23.119Z,64.19
2019-05-19T18:08:51.735Z,63.92
2019-05-19T18:11:20.239Z,66.47
2019-05-19T18:13:48.805Z,68.03
2019-05-19T18:16:17.325Z,68.00
2019-05-19T18:18:45.961Z,67.54
2019-05-19T18:21:14.458Z,68.91
2019-05-19T18:23:43.191Z,67.99
2019-05-19T18:26:11.822Z,67.96
2019-05-19T18:28:40.366Z,67.43
2019-05-19T18:31:09.120Z,69.52
2019-05-19T18:33:37.827Z,66.30
2019-05-19T18:36:06.570Z,66.06
2019-05-19T18:38:35.205Z,69.99
2019-05-19T18:41:03.900Z,65.32
2019-05-19T18:43:32.486Z,65.50
2019-05-19T18:46:01.109Z,65.43
2019-05-19T18:48:29.652Z,65.08
2019-05-19T18:50:58.146Z,64.70
2019-05-19T18:53:26.687Z,65.04
2019-05-19T18:55:55.209Z,65.16
2019-05-19T18:58:23.900Z,65.78
2019-05-19T19:00:52.578Z,64.93
2019-05-19T19:03:21.111Z,68.71
2019-05-19T19:05:49.723Z,65.64
2019-05-19T19:08:18.431Z,66.19
2019-05-19T19:10:47.058Z,66.71
2019-05-19T19:13:15.701Z,70.20
2019-05-19T19:15:44.227Z,67.71
2019-05-19T19:18:12.841Z,65.77
2019-05-19T19:20:41.452Z,69.26
2019-05-19T19:23:09.947Z,66.19
2019-05-19T19:25:38.438Z,65.68
2019-05-19T19:28:07.133Z,66.18
2019-05-19T19:30:35.744Z,65.98
2019-05-19T19:33:04.444Z,67.64
2019-05-19T19:35:39.286Z,67.80
2019-05-19T19:38:03.314Z,68.93
2019-05-19T19:40:32.121Z,66.47
2019-05-19T19:43:01.010Z,65.44
2019-05-19T19:45:29.609Z,66.33
2019-05-19T19:47:58.136Z,67.09
2019-05-19T19:50:26.636Z,64.73
2019-05-19T19:52:55.238Z,64.96
2019-05-19T19:55:23.934Z,64.75
2019-05-19T19:57:52.529Z,65.72
2019-05-19T20:00:41.640Z,64.07
2019-05-19T20:03:10.432Z,63.98
2019-05-19T20:05:39.120Z,63.98
2019-05-19T20:08:07.727Z,63.56
2019-05-19T20:10:36.457Z,65.57
2019-05-19T20:13:05.082Z,63.55
2019-05-19T20:15:34.220Z,62.69
2019-05-19T20:18:02.832Z,64.63
2019-05-19T20:20:31.424Z,62.65
2019-05-19T20:23:00.023Z,62.12
2019-05-19T20:25:28.533Z,62.33
2019-05-19T20:27:57.282Z,62.07
2019-05-19T20:30:35.182Z,61.98
2019-05-19T20:32:56.406Z,65.11
2019-05-19T20:35:24.950Z,63.12
2019-05-19T20:37:53.441Z,65.99
2019-05-19T20:40:30.270Z,63.08
2019-05-19T20:42:58.894Z,62.84
2019-05-19T20:45:27.885Z,63.81
2019-05-19T20:47:56.772Z,61.96
2019-05-19T20:50:25.761Z,63.37
2019-05-19T20:52:54.740Z,61.93
2019-05-19T20:55:23.387Z,62.41
2019-05-19T20:57:52.033Z,61.79
2019-05-19T21:00:21.063Z,61.89
2019-05-19T21:02:49.830Z,62.20
2019-05-19T21:05:18.460Z,62.64
2019-05-19T21:07:47.367Z,63.26
2019-05-19T21:10:15.979Z,63.09
2019-05-19T21:12:44.634Z,63.01
2019-05-19T21:15:13.524Z,63.30
2019-05-19T21:17:42.231Z,64.31
2019-05-19T21:20:11.816Z,64.10
2019-05-19T21:22:41.438Z,63.49
2019-05-19T21:25:10.525Z,63.14
2019-05-19T21:27:39.191Z,62.67
2019-05-19T21:30:09.408Z,64.45
2019-05-19T21:32:38.027Z,62.56
2019-05-19T21:35:06.745Z,62.60
2019-05-19T21:37:35.460Z,62.81
2019-05-19T21:40:05.265Z,62.92
2019-05-19T21:42:33.899Z,65.19
2019-05-19T21:45:02.847Z,63.39
2019-05-19T21:47:31.672Z,64.10
2019-05-19T21:50:00.279Z,64.57
2019-05-19T21:52:29.000Z,65.10
2019-05-19T21:54:57.732Z,65.67
2019-05-19T21:57:26.341Z,65.34
2019-05-19T21:59:55.077Z,66.02
2019-05-19T22:02:23.813Z,66.05
2019-05-19T22:04:52.548Z,71.05
2019-05-19T22:07:34.784Z,65.73
2019-05-19T22:10:03.623Z,65.09
2019-05-19T22:12:32.363Z,64.39
2019-05-19T22:15:01.108Z,65.21
2019-05-19T22:17:29.761Z,63.22
2019-05-19T22:19:58.614Z,61.68
2019-05-19T22:22:27.236Z,61.56
2019-05-19T22:24:55.876Z,66.35
2019-05-19T22:27:24.630Z,59.40
2019-05-19T22:29:53.171Z,58.74
2019-05-19T22:32:21.974Z,58.74
2019-05-19T22:34:50.814Z,58.55
2019-05-19T22:37:19.462Z,64.60
2019-05-19T22:39:48.100Z,60.62
2019-05-19T22:42:16.951Z,58.03
2019-05-19T22:44:45.572Z,59.54
2019-05-19T22:47:14.430Z,59.08
2019-05-19T22:49:43.150Z,62.89
2019-05-19T22:52:11.880Z,58.19
2019-05-19T22:54:40.615Z,58.57
2019-05-19T22:57:09.266Z,58.21
2019-05-19T22:59:37.773Z,63.09
2019-05-19T23:02:09.174Z,58.82
2019-05-19T23:04:37.182Z,63.52
2019-05-19T23:07:05.836Z,60.92
2019-05-19T23:09:34.675Z,61.69
2019-05-19T23:12:03.308Z,61.46
2019-05-19T23:14:32.060Z,59.58
2019-05-19T23:17:00.771Z,61.10
2019-05-19T23:19:29.496Z,61.01
2019-05-19T23:21:58.339Z,59.82
2019-05-19T23:24:27.066Z,60.14
2019-05-19T23:26:55.809Z,60.66
2019-05-19T23:29:24.669Z,61.26
2019-05-19T23:32:06.390Z,61.69
2019-05-19T23:34:23.988Z,64.19
2019-05-19T23:36:52.769Z,64.98
2019-05-19T23:39:21.392Z,66.12
2019-05-19T23:41:50.229Z,68.72
2019-05-19T23:44:18.975Z,67.51
2019-05-19T23:46:47.694Z,68.16
2019-05-19T23:49:16.314Z,72.37
2019-05-19T23:51:44.943Z,71.03
2019-05-19T23:54:13.571Z,69.40
2019-05-19T23:56:42.305Z,68.61
2019-05-19T23:59:10.963Z,69.12
